Terminal Aerodrome Forecast
Issued by NWS Bismarck, ND

Home | Current Version | Previous Version | Graphics & Text | Print | Product List | Glossary On
Versions: 1 2 3 4 5 6 7 8 9 10 11 12 13 14
119
FTUS43 KBIS 192320
TAFBIS
TAF
KBIS 192320Z 2000/2024 10007KT P6SM BKN150
     FM201700 06008KT P6SM BKN080=

USA.gov is the U.S. government's official web portal to all federal, state and local government web resources and services.